Weather History for Staunton, VA

Change the Weather History Date:

Tuesday, January 29, 2013

  Actual Average Record
Temperature  
Mean Temperature 60 °F -  
Max Temperature 75 °F 43 °F 75 °F (2002)
Min Temperature 44 °F 24 °F 1 °F (2014)
Degree Days  
Heating Degree Days 6    
Growing Degree Days 10 (Base 50)    
Moisture  
Dew Point 48 °F    
Average Humidity 68    
Maximum Humidity 95    
Minimum Humidity 41    
Precipitation  
Precipitation 0.03 in - - ()
Sea Level Pressure  
Sea Level Pressure 30.07 in    
Wind  
Wind Speed 6 mph (South)    
Max Wind Speed 14 mph    
Max Gust Speed 18 mph    
Visibility 9 miles    
Events      
Averages and records for this station are not official NWS values.
T = Trace of Precipitation, MM = Missing Value Source: NWS Daily Summary

Daily Weather History Graph

Daily Weather History Graph

Search for Another Location

Airport:

Trip Planner

Search our weather history database for the weather conditions in past years. The results will help you decide how hot, cold, wet, or windy it might be!

Date:

Astronomy

Jan. 29, 2013 Rise Set
Actual Time 7:22 AM EST 5:35 PM EST
Civil Twilight 6:54 AM EST 6:03 PM EST
Nautical Twilight 6:23 AM EST 6:34 PM EST
Astronomical Twilight 5:51 AM EST 7:06 PM EST
Moon 8:26 PM EST (1/29) 8:21 AM EST (1/29)
Length of Visible Light 11h 08m
Length of Day
10h 12m
Waning Gibbous, 94% of the Moon is Illuminated
Jan 29
Waning Gibbous
Feb 3
Last Quarter
Feb 10
New
Feb 17
First Quarter
Feb 25
Full

Hourly Weather History & Observations

Time (EST) Temp. Windchill Dew Point Humidity Pressure Visibility Wind Dir Wind Speed Gust Speed Precip Events Conditions
12:15 AM 51.4 °F - 44.6 °F 77% 30.12 in 10.0 mi South 8.1 mph - N/A   Clear
12:35 AM 51.8 °F - 44.8 °F 77% 30.12 in 10.0 mi South 5.8 mph - N/A   Scattered Clouds
12:55 AM 51.8 °F - 45.0 °F 77% 30.11 in 10.0 mi South 8.1 mph - N/A   Overcast
1:15 AM 52.5 °F - 45.7 °F 78% 30.11 in 10.0 mi South 8.1 mph - N/A   Overcast
1:35 AM 52.5 °F - 45.7 °F 78% 30.11 in 10.0 mi SSE 5.8 mph - N/A   Overcast
1:55 AM 52.9 °F - 46.2 °F 78% 30.11 in 10.0 mi South 6.9 mph - N/A   Overcast
2:15 AM 52.5 °F - 46.2 °F 79% 30.11 in 10.0 mi SSE 4.6 mph - N/A   Mostly Cloudy
2:35 AM 53.2 °F - 46.8 °F 79% 30.12 in 10.0 mi Calm Calm - N/A   Mostly Cloudy
2:55 AM 52.0 °F - 46.4 °F 81% 30.11 in 10.0 mi SSE 3.5 mph - N/A   Scattered Clouds
3:15 AM 48.9 °F - 44.6 °F 85% 30.11 in 10.0 mi Calm Calm - N/A   Clear
3:35 AM 50.5 °F - 45.7 °F 83% 30.11 in 10.0 mi South 4.6 mph - N/A   Clear
3:55 AM 48.7 °F - 45.3 °F 88% 30.11 in 10.0 mi Calm Calm - N/A   Clear
4:15 AM 48.0 °F - 44.6 °F 88% 30.11 in 10.0 mi SSE 4.6 mph - N/A   Clear
4:35 AM 47.1 °F - 44.2 °F 90% 30.11 in 7.0 mi Calm Calm - N/A   Clear
4:55 AM 44.4 °F 42.9 °F 41.7 °F 90% 30.11 in 5.0 mi SW 3.5 mph - N/A   Clear
5:15 AM 46.9 °F - 45.3 °F 94% 30.11 in 10.0 mi Calm Calm - N/A   Clear
5:35 AM 45.3 °F 44.0 °F 43.0 °F 92% 30.11 in 7.0 mi SE 3.5 mph - N/A   Mostly Cloudy
5:55 AM 49.1 °F - 46.9 °F 92% 30.11 in 10.0 mi Calm Calm - N/A   Scattered Clouds
6:15 AM 50.0 °F - 47.3 °F 90% 30.12 in 10.0 mi Calm Calm - N/A   Scattered Clouds
6:35 AM 48.2 °F - 44.8 °F 88% 30.11 in 10.0 mi SSE 3.5 mph - N/A   Scattered Clouds
6:55 AM 45.0 °F 42.6 °F 42.8 °F 92% 30.12 in 3.0 mi South 4.6 mph - N/A   Clear
7:15 AM 46.6 °F - 44.2 °F 92% 30.13 in 7.0 mi South 4.6 mph - N/A   Clear
7:35 AM 45.5 °F - 43.0 °F 91% 30.13 in 0.8 mi Calm Calm - N/A   Mist
7:55 AM 46.6 °F - 44.8 °F 93% 30.13 in 1.8 mi Calm Calm - N/A   Mist
8:15 AM 48.0 °F - 46.6 °F 95% 30.14 in 5.0 mi SE 4.6 mph - N/A   Clear
8:35 AM 52.0 °F - 49.5 °F 91% 30.13 in 10.0 mi SSE 5.8 mph - N/A   Clear
8:55 AM 55.2 °F - 50.0 °F 83% 30.14 in 10.0 mi South 5.8 mph - N/A   Clear
9:15 AM 58.5 °F - 50.9 °F 76% 30.14 in 10.0 mi South 5.8 mph - N/A   Clear
9:35 AM 60.1 °F - 51.3 °F 73% 30.15 in 10.0 mi South 3.5 mph - N/A   Clear
9:55 AM 60.8 °F - 51.3 °F 71% 30.14 in 10.0 mi SE 3.5 mph - N/A   Clear
10:15 AM 61.7 °F - 51.4 °F 69% 30.14 in 10.0 mi SSE 4.6 mph - N/A   Clear
10:35 AM 63.7 °F - 52.0 °F 66% 30.13 in 10.0 mi South 5.8 mph - N/A   Clear
10:55 AM 65.1 °F - 52.3 °F 63% 30.13 in 10.0 mi South 6.9 mph - N/A   Clear
11:15 AM 66.4 °F - 52.7 °F 61% 30.13 in 10.0 mi SSW 9.2 mph - N/A   Clear
11:35 AM 67.3 °F - 52.7 °F 59% 30.12 in 10.0 mi South 9.2 mph - N/A   Clear
11:55 AM 68.2 °F - 52.7 °F 58% 30.11 in 10.0 mi South 9.2 mph - N/A   Clear
12:15 PM - - - N/A% - - North - - N/A   Unknown
12:35 PM 71.1 °F - 52.9 °F 53% 30.08 in 10.0 mi SW 11.5 mph - 0.03 in   Clear
12:55 PM 70.3 °F - 52.0 °F 52% 30.07 in 10.0 mi South 9.2 mph - 0.03 in   Clear
1:15 PM 72.5 °F - 51.8 °F 48% 30.06 in 10.0 mi South 10.4 mph - N/A   Clear
1:35 PM 73.0 °F - 51.1 °F 46% 30.06 in 10.0 mi South 11.5 mph - N/A   Clear
1:55 PM 73.8 °F - 50.4 °F 44% 30.05 in 10.0 mi SW 10.4 mph 18.4 mph N/A   Clear
2:15 PM 74.7 °F - 50.2 °F 42% 30.04 in 10.0 mi SSW 12.7 mph - N/A   Clear
2:35 PM 74.8 °F - 50.0 °F 42% 30.03 in 10.0 mi SW 13.8 mph 18.4 mph N/A   Clear
2:55 PM 75.0 °F - 50.0 °F 41% 30.04 in 10.0 mi SSW 6.9 mph - N/A   Clear
3:15 PM 75.2 °F - 50.2 °F 41% 30.03 in 10.0 mi South 8.1 mph - N/A   Clear
3:35 PM 74.3 °F - 50.4 °F 43% 30.03 in 10.0 mi South 9.2 mph - N/A   Clear
3:55 PM 73.8 °F - 50.5 °F 44% 30.03 in 10.0 mi South 8.1 mph - N/A   Clear
4:15 PM 73.6 °F - 50.9 °F 45% 30.03 in 10.0 mi South 9.2 mph - N/A   Clear
4:35 PM 72.1 °F - 51.1 °F 47% 30.03 in 10.0 mi South 6.9 mph - N/A   Clear
4:55 PM 70.7 °F - 50.9 °F 49% 30.03 in 10.0 mi SSE 9.2 mph - N/A   Clear
5:15 PM 69.1 °F - 50.4 °F 51% 30.03 in 10.0 mi South 9.2 mph - N/A   Clear
5:35 PM 68.0 °F - 50.0 °F 52% 30.02 in 10.0 mi South 6.9 mph - N/A   Clear
5:55 PM 66.9 °F - 49.6 °F 54% 30.02 in 10.0 mi South 8.1 mph - N/A   Clear
6:15 PM 66.2 °F - 49.3 °F 54% 30.03 in 10.0 mi South 5.8 mph - N/A   Clear
6:35 PM 64.8 °F - 49.1 °F 57% 30.02 in 10.0 mi South 4.6 mph - N/A   Clear
6:55 PM 64.4 °F - 48.7 °F 57% 30.02 in 10.0 mi South 4.6 mph - N/A   Clear
7:15 PM 64.0 °F - 48.6 °F 57% 30.02 in 10.0 mi South 4.6 mph - N/A   Clear
7:35 PM 63.3 °F - 48.2 °F 58% 30.01 in 10.0 mi South 5.8 mph - N/A   Clear
7:55 PM 63.7 °F - 48.0 °F 57% 30.02 in 10.0 mi South 8.1 mph - N/A   Clear
8:15 PM 63.9 °F - 47.7 °F 56% 30.02 in 10.0 mi South 6.9 mph - N/A   Clear
8:35 PM 62.4 °F - 47.1 °F 57% 30.03 in 10.0 mi South 6.9 mph - N/A   Clear
8:55 PM 62.1 °F - 46.6 °F 57% 30.03 in 10.0 mi South 6.9 mph - N/A   Clear
9:15 PM 59.2 °F - 46.2 °F 62% 30.02 in 10.0 mi SSW 5.8 mph - N/A   Clear
9:35 PM 59.2 °F - 45.9 °F 61% 30.03 in 10.0 mi South 5.8 mph - N/A   Clear
9:55 PM 58.5 °F - 46.2 °F 64% 30.03 in 10.0 mi South 6.9 mph - N/A   Clear
10:15 PM 59.5 °F - 46.6 °F 62% 30.02 in 10.0 mi South 5.8 mph - N/A   Clear
10:35 PM 58.1 °F - 46.6 °F 65% 30.01 in 10.0 mi South 3.5 mph - N/A   Clear
10:55 PM 59.4 °F - 47.3 °F 64% 29.99 in 10.0 mi South 6.9 mph - N/A   Clear
11:15 PM 57.9 °F - 47.1 °F 67% 29.99 in 10.0 mi SW 5.8 mph - N/A   Clear
11:35 PM 56.5 °F - 47.1 °F 71% 29.99 in 10.0 mi SW 4.6 mph - N/A   Clear
11:55 PM 53.8 °F - 46.0 °F 75% 29.98 in 10.0 mi SSW 3.5 mph - N/A   Clear